sensor_id;sensor_type;location;lat;lon;timestamp;pressure;altitude;pressure_sealevel;temperature;humidity
60240;BME280;46102;39.012;-7.064;2023-04-21T00:01:23;97605.25;;;17.64;53.97
60240;BME280;46102;39.012;-7.064;2023-04-21T00:03:24;97604.44;;;17.60;53.78
60240;BME280;46102;39.012;-7.064;2023-04-21T00:05:25;97605.25;;;17.61;53.95
60240;BME280;46102;39.012;-7.064;2023-04-21T00:07:26;97600.88;;;17.56;53.94
60240;BME280;46102;39.012;-7.064;2023-04-21T00:09:27;97606.38;;;17.53;54.08
60240;BME280;46102;39.012;-7.064;2023-04-21T00:11:27;97611.47;;;17.47;54.60
60240;BME280;46102;39.012;-7.064;2023-04-21T00:13:28;97610.34;;;17.55;54.37
60240;BME280;46102;39.012;-7.064;2023-04-21T00:15:29;97616.56;;;17.34;54.66
60240;BME280;46102;39.012;-7.064;2023-04-21T00:17:30;97623.94;;;17.19;55.02
60240;BME280;46102;39.012;-7.064;2023-04-21T00:19:30;97624.69;;;17.13;55.19
60240;BME280;46102;39.012;-7.064;2023-04-21T00:21:32;97622.59;;;16.99;55.45
60240;BME280;46102;39.012;-7.064;2023-04-21T00:23:33;97615.75;;;16.85;55.80
60240;BME280;46102;39.012;-7.064;2023-04-21T00:25:34;97619.28;;;16.82;55.99
60240;BME280;46102;39.012;-7.064;2023-04-21T00:27:35;97613.03;;;16.93;56.08
60240;BME280;46102;39.012;-7.064;2023-04-21T00:29:38;97619.66;;;16.81;56.31
60240;BME280;46102;39.012;-7.064;2023-04-21T00:31:40;97621.97;;;16.75;56.49
60240;BME280;46102;39.012;-7.064;2023-04-21T00:33:40;97620.72;;;16.73;56.70
60240;BME280;46102;39.012;-7.064;2023-04-21T00:35:41;97613.97;;;16.70;56.94
60240;BME280;46102;39.012;-7.064;2023-04-21T00:37:42;97620.72;;;16.73;57.01
60240;BME280;46102;39.012;-7.064;2023-04-21T00:39:45;97620.78;;;16.76;56.52
60240;BME280;46102;39.012;-7.064;2023-04-21T00:41:47;97623.06;;;16.67;56.61
60240;BME280;46102;39.012;-7.064;2023-04-21T00:44:07;97622.16;;;16.56;56.99
60240;BME280;46102;39.012;-7.064;2023-04-21T00:46:09;97622.09;;;16.52;56.98
60240;BME280;46102;39.012;-7.064;2023-04-21T00:48:12;97618.94;;;16.54;57.37
60240;BME280;46102;39.012;-7.064;2023-04-21T00:50:13;97619.66;;;16.47;57.59
60240;BME280;46102;39.012;-7.064;2023-04-21T00:52:16;97619.31;;;16.52;57.71
60240;BME280;46102;39.012;-7.064;2023-04-21T00:54:17;97616.84;;;16.40;58.15
60240;BME280;46102;39.012;-7.064;2023-04-21T00:56:19;97613.22;;;16.36;58.28
60240;BME280;46102;39.012;-7.064;2023-04-21T00:58:21;97614.44;;;16.38;58.20
60240;BME280;46102;39.012;-7.064;2023-04-21T01:00:22;97617.50;;;16.30;58.50
60240;BME280;46102;39.012;-7.064;2023-04-21T01:02:23;97614.63;;;16.19;58.54
60240;BME280;46102;39.012;-7.064;2023-04-21T01:04:24;97609.19;;;16.30;58.45
60240;BME280;46102;39.012;-7.064;2023-04-21T01:06:31;97609.81;;;16.16;58.58
60240;BME280;46102;39.012;-7.064;2023-04-21T01:08:33;97603.00;;;16.06;58.85
60240;BME280;46102;39.012;-7.064;2023-04-21T01:10:35;97598.25;;;16.07;58.80
60240;BME280;46102;39.012;-7.064;2023-04-21T01:12:44;97589.09;;;16.02;58.83
60240;BME280;46102;39.012;-7.064;2023-04-21T01:14:45;97587.94;;;16.03;58.80
60240;BME280;46102;39.012;-7.064;2023-04-21T01:16:46;97589.09;;;16.02;58.96
60240;BME280;46102;39.012;-7.064;2023-04-21T01:18:47;97577.81;;;15.85;59.06
60240;BME280;46102;39.012;-7.064;2023-04-21T01:20:48;97573.94;;;15.89;59.10
60240;BME280;46102;39.012;-7.064;2023-04-21T01:22:49;97578.09;;;15.76;59.52
60240;BME280;46102;39.012;-7.064;2023-04-21T01:24:51;97575.22;;;15.69;59.53
60240;BME280;46102;39.012;-7.064;2023-04-21T01:26:52;97579.53;;;15.66;59.78
60240;BME280;46102;39.012;-7.064;2023-04-21T01:28:55;97579.88;;;15.65;59.73
60240;BME280;46102;39.012;-7.064;2023-04-21T01:30:56;97569.78;;;15.72;59.70
60240;BME280;46102;39.012;-7.064;2023-04-21T01:32:57;97575.13;;;15.61;59.82
60240;BME280;46102;39.012;-7.064;2023-04-21T01:35:00;97578.59;;;15.55;59.99
60240;BME280;46102;39.012;-7.064;2023-04-21T01:37:01;97570.66;;;15.53;60.04
60240;BME280;46102;39.012;-7.064;2023-04-21T01:39:02;97571.06;;;15.52;59.97
60240;BME280;46102;39.012;-7.064;2023-04-21T01:41:04;97567.63;;;15.62;60.09
60240;BME280;46102;39.012;-7.064;2023-04-21T01:43:04;97571.50;;;15.57;60.13
60240;BME280;46102;39.012;-7.064;2023-04-21T01:45:06;97570.28;;;15.55;60.12
60240;BME280;46102;39.012;-7.064;2023-04-21T01:47:08;97570.81;;;15.64;59.91
60240;BME280;46102;39.012;-7.064;2023-04-21T01:49:10;97575.75;;;15.51;60.16
60240;BME280;46102;39.012;-7.064;2023-04-21T01:51:11;97574.50;;;15.45;60.58
60240;BME280;46102;39.012;-7.064;2023-04-21T01:53:12;97562.16;;;15.39;60.55
60240;BME280;46102;39.012;-7.064;2023-04-21T01:55:15;97566.91;;;15.38;60.57
60240;BME280;46102;39.012;-7.064;2023-04-21T01:57:16;97563.38;;;15.41;60.60
60240;BME280;46102;39.012;-7.064;2023-04-21T01:59:17;97564.41;;;15.56;60.39
60240;BME280;46102;39.012;-7.064;2023-04-21T02:01:19;97555.38;;;15.33;60.73
60240;BME280;46102;39.012;-7.064;2023-04-21T02:03:20;97552.13;;;15.27;60.82
60240;BME280;46102;39.012;-7.064;2023-04-21T02:05:20;97553.25;;;15.23;60.94
60240;BME280;46102;39.012;-7.064;2023-04-21T02:07:21;97549.16;;;15.13;60.99
60240;BME280;46102;39.012;-7.064;2023-04-21T02:09:22;97552.31;;;15.11;61.21
60240;BME280;46102;39.012;-7.064;2023-04-21T02:11:26;97546.44;;;15.16;60.84
60240;BME280;46102;39.012;-7.064;2023-04-21T02:13:27;97547.31;;;15.20;60.64
60240;BME280;46102;39.012;-7.064;2023-04-21T02:15:28;97548.88;;;15.22;60.70
60240;BME280;46102;39.012;-7.064;2023-04-21T02:17:28;97550.84;;;15.21;60.79
60240;BME280;46102;39.012;-7.064;2023-04-21T02:19:30;97541.34;;;15.18;61.06
60240;BME280;46102;39.012;-7.064;2023-04-21T02:21:31;97544.81;;;15.12;61.03
60240;BME280;46102;39.012;-7.064;2023-04-21T02:23:32;97540.75;;;15.06;61.43
60240;BME280;46102;39.012;-7.064;2023-04-21T02:25:33;97530.88;;;15.05;61.71
60240;BME280;46102;39.012;-7.064;2023-04-21T02:27:33;97534.13;;;15.10;61.57
60240;BME280;46102;39.012;-7.064;2023-04-21T02:29:34;97533.66;;;15.05;61.80
60240;BME280;46102;39.012;-7.064;2023-04-21T02:31:35;97527.63;;;14.99;62.05
60240;BME280;46102;39.012;-7.064;2023-04-21T02:33:36;97524.41;;;14.93;62.22
60240;BME280;46102;39.012;-7.064;2023-04-21T02:35:36;97525.56;;;14.92;62.32
60240;BME280;46102;39.012;-7.064;2023-04-21T02:37:37;97525.97;;;14.94;62.55
60240;BME280;46102;39.012;-7.064;2023-04-21T02:39:38;97525.19;;;14.94;62.34
60240;BME280;46102;39.012;-7.064;2023-04-21T02:41:39;97528.22;;;14.85;62.32
60240;BME280;46102;39.012;-7.064;2023-04-21T02:43:40;97525.41;;;14.82;62.45
60240;BME280;46102;39.012;-7.064;2023-04-21T02:45:41;97523.34;;;14.75;62.63
60240;BME280;46102;39.012;-7.064;2023-04-21T02:47:42;97526.81;;;14.72;62.96
60240;BME280;46102;39.012;-7.064;2023-04-21T02:49:42;97528.66;;;14.64;63.07
60240;BME280;46102;39.012;-7.064;2023-04-21T02:51:43;97523.81;;;14.57;62.96
60240;BME280;46102;39.012;-7.064;2023-04-21T02:53:44;97526.22;;;14.59;63.19
60240;BME280;46102;39.012;-7.064;2023-04-21T02:55:45;97527.38;;;14.58;63.05
60240;BME280;46102;39.012;-7.064;2023-04-21T02:57:46;97525.63;;;14.50;63.44
60240;BME280;46102;39.012;-7.064;2023-04-21T02:59:46;97525.25;;;14.51;63.19
60240;BME280;46102;39.012;-7.064;2023-04-21T03:01:47;97524.91;;;14.53;63.00
60240;BME280;46102;39.012;-7.064;2023-04-21T03:03:48;97526.34;;;14.47;63.23
60240;BME280;46102;39.012;-7.064;2023-04-21T03:05:55;97525.44;;;14.39;63.06
60240;BME280;46102;39.012;-7.064;2023-04-21T03:07:56;97521.94;;;14.42;63.25
60240;BME280;46102;39.012;-7.064;2023-04-21T03:09:57;97525.56;;;14.46;63.11
60240;BME280;46102;39.012;-7.064;2023-04-21T03:11:58;97515.13;;;14.36;63.17
60240;BME280;46102;39.012;-7.064;2023-04-21T03:13:58;97515.09;;;14.32;63.19
60240;BME280;46102;39.012;-7.064;2023-04-21T03:15:59;97521.31;;;14.29;63.66
60240;BME280;46102;39.012;-7.064;2023-04-21T03:18:00;97510.50;;;14.21;64.22
60240;BME280;46102;39.012;-7.064;2023-04-21T03:20:01;97504.50;;;14.15;64.07
60240;BME280;46102;39.012;-7.064;2023-04-21T03:22:05;97511.22;;;14.14;64.01
60240;BME280;46102;39.012;-7.064;2023-04-21T03:24:06;97500.53;;;14.12;64.12
60240;BME280;46102;39.012;-7.064;2023-04-21T03:26:07;97508.00;;;14.12;64.22
60240;BME280;46102;39.012;-7.064;2023-04-21T03:28:10;97504.09;;;14.13;64.25
60240;BME280;46102;39.012;-7.064;2023-04-21T03:30:11;97508.72;;;14.09;64.27
60240;BME280;46102;39.012;-7.064;2023-04-21T03:32:12;97505.91;;;14.05;64.21
60240;BME280;46102;39.012;-7.064;2023-04-21T03:34:13;97503.16;;;14.05;64.59
60240;BME280;46102;39.012;-7.064;2023-04-21T03:36:14;97500.69;;;14.00;64.77
60240;BME280;46102;39.012;-7.064;2023-04-21T03:38:15;97501.78;;;13.95;64.90
60240;BME280;46102;39.012;-7.064;2023-04-21T03:40:16;97501.00;;;13.95;65.04
60240;BME280;46102;39.012;-7.064;2023-04-21T03:42:17;97498.16;;;13.91;64.92
60240;BME280;46102;39.012;-7.064;2023-04-21T03:44:19;97495.00;;;13.89;65.19
60240;BME280;46102;39.012;-7.064;2023-04-21T03:46:20;97498.09;;;13.88;65.19
60240;BME280;46102;39.012;-7.064;2023-04-21T03:48:22;97499.31;;;13.90;65.04
60240;BME280;46102;39.012;-7.064;2023-04-21T03:50:23;97503.63;;;13.88;64.98
60240;BME280;46102;39.012;-7.064;2023-04-21T03:52:25;97513.63;;;13.77;65.49
60240;BME280;46102;39.012;-7.064;2023-04-21T03:54:26;97510.00;;;13.72;65.76
60240;BME280;46102;39.012;-7.064;2023-04-21T03:56:27;97508.56;;;13.79;65.34
60240;BME280;46102;39.012;-7.064;2023-04-21T03:58:28;97514.41;;;13.77;65.72
60240;BME280;46102;39.012;-7.064;2023-04-21T04:00:29;97514.06;;;13.79;65.59
60240;BME280;46102;39.012;-7.064;2023-04-21T04:02:30;97510.72;;;13.89;65.45
60240;BME280;46102;39.012;-7.064;2023-04-21T04:04:31;97518.28;;;13.72;65.81
60240;BME280;46102;39.012;-7.064;2023-04-21T04:06:32;97513.97;;;13.75;65.73
60240;BME280;46102;39.012;-7.064;2023-04-21T04:08:34;97515.16;;;13.74;65.76
60240;BME280;46102;39.012;-7.064;2023-04-21T04:10:35;97511.44;;;13.86;65.57
60240;BME280;46102;39.012;-7.064;2023-04-21T04:12:36;97513.69;;;13.80;65.90
60240;BME280;46102;39.012;-7.064;2023-04-21T04:14:37;97497.09;;;13.77;66.11
60240;BME280;46102;39.012;-7.064;2023-04-21T04:16:38;97516.03;;;13.78;66.00
60240;BME280;46102;39.012;-7.064;2023-04-21T04:18:40;97512.03;;;13.75;66.16
60240;BME280;46102;39.012;-7.064;2023-04-21T04:20:41;97521.94;;;13.80;65.84
60240;BME280;46102;39.012;-7.064;2023-04-21T04:22:42;97529.22;;;13.69;66.22
60240;BME280;46102;39.012;-7.064;2023-04-21T04:24:43;97522.56;;;13.70;66.41
60240;BME280;46102;39.012;-7.064;2023-04-21T04:26:44;97530.03;;;13.69;66.71
60240;BME280;46102;39.012;-7.064;2023-04-21T04:28:45;97537.72;;;13.60;67.46
60240;BME280;46102;39.012;-7.064;2023-04-21T04:30:46;97541.03;;;13.50;68.07
60240;BME280;46102;39.012;-7.064;2023-04-21T04:32:46;97537.19;;;13.54;68.10
60240;BME280;46102;39.012;-7.064;2023-04-21T04:34:47;97540.72;;;13.55;68.14
60240;BME280;46102;39.012;-7.064;2023-04-21T04:36:48;97542.09;;;13.45;68.41
60240;BME280;46102;39.012;-7.064;2023-04-21T04:38:50;97552.69;;;13.43;68.53
60240;BME280;46102;39.012;-7.064;2023-04-21T04:40:56;97551.22;;;13.30;69.00
60240;BME280;46102;39.012;-7.064;2023-04-21T04:42:58;97552.97;;;13.38;69.17
60240;BME280;46102;39.012;-7.064;2023-04-21T04:44:59;97547.66;;;13.29;69.46
60240;BME280;46102;39.012;-7.064;2023-04-21T04:47:01;97544.34;;;13.24;69.27
60240;BME280;46102;39.012;-7.064;2023-04-21T04:49:02;97541.25;;;13.25;69.69
60240;BME280;46102;39.012;-7.064;2023-04-21T04:51:04;97540.34;;;13.21;69.72
60240;BME280;46102;39.012;-7.064;2023-04-21T04:53:05;97538.44;;;13.22;69.74
60240;BME280;46102;39.012;-7.064;2023-04-21T04:55:07;97535.56;;;13.18;69.59
60240;BME280;46102;39.012;-7.064;2023-04-21T04:57:07;97545.34;;;13.31;69.14
60240;BME280;46102;39.012;-7.064;2023-04-21T04:59:08;97541.59;;;13.24;69.52
60240;BME280;46102;39.012;-7.064;2023-04-21T05:01:11;97546.31;;;13.23;69.61
60240;BME280;46102;39.012;-7.064;2023-04-21T05:03:12;97531.75;;;13.23;69.70
60240;BME280;46102;39.012;-7.064;2023-04-21T05:05:13;97531.25;;;13.17;69.58
60240;BME280;46102;39.012;-7.064;2023-04-21T05:07:13;97528.03;;;13.15;69.47
60240;BME280;46102;39.012;-7.064;2023-04-21T05:09:14;97528.84;;;13.16;69.43
60240;BME280;46102;39.012;-7.064;2023-04-21T05:11:15;97519.41;;;13.17;69.46
60240;BME280;46102;39.012;-7.064;2023-04-21T05:13:16;97527.06;;;13.07;69.67
60240;BME280;46102;39.012;-7.064;2023-04-21T05:15:17;97526.78;;;13.12;69.75
60240;BME280;46102;39.012;-7.064;2023-04-21T05:17:18;97527.06;;;13.07;69.71
60240;BME280;46102;39.012;-7.064;2023-04-21T05:19:19;97534.53;;;13.07;69.87
60240;BME280;46102;39.012;-7.064;2023-04-21T05:21:27;97530.53;;;13.04;69.95
60240;BME280;46102;39.012;-7.064;2023-04-21T05:23:28;97529.81;;;13.07;70.09
60240;BME280;46102;39.012;-7.064;2023-04-21T05:25:28;97534.63;;;13.10;70.22
60240;BME280;46102;39.012;-7.064;2023-04-21T05:27:29;97535.06;;;12.97;71.05
60240;BME280;46102;39.012;-7.064;2023-04-21T05:29:30;97539.88;;;13.00;71.04
60240;BME280;46102;39.012;-7.064;2023-04-21T05:31:33;97533.66;;;12.87;71.58
60240;BME280;46102;39.012;-7.064;2023-04-21T05:33:34;97536.25;;;12.96;71.68
60240;BME280;46102;39.012;-7.064;2023-04-21T05:35:35;97537.59;;;12.86;71.88
60240;BME280;46102;39.012;-7.064;2023-04-21T05:37:35;97539.06;;;12.83;71.80
60240;BME280;46102;39.012;-7.064;2023-04-21T05:39:36;97543.44;;;12.84;72.23
60240;BME280;46102;39.012;-7.064;2023-04-21T05:41:37;97544.97;;;12.82;72.61
60240;BME280;46102;39.012;-7.064;2023-04-21T05:43:38;97546.19;;;12.84;72.69
60240;BME280;46102;39.012;-7.064;2023-04-21T05:45:39;97555.69;;;12.87;72.75
60240;BME280;46102;39.012;-7.064;2023-04-21T05:47:40;97555.19;;;12.81;72.54
60240;BME280;46102;39.012;-7.064;2023-04-21T05:49:41;97558.88;;;12.89;72.85
60240;BME280;46102;39.012;-7.064;2023-04-21T05:51:44;97556.94;;;12.89;72.72
60240;BME280;46102;39.012;-7.064;2023-04-21T05:53:45;97554.91;;;12.86;72.87
60240;BME280;46102;39.012;-7.064;2023-04-21T05:55:46;97559.34;;;12.91;72.62
60240;BME280;46102;39.012;-7.064;2023-04-21T05:57:46;97559.34;;;12.91;72.63
60240;BME280;46102;39.012;-7.064;2023-04-21T05:59:47;97562.00;;;12.87;72.90
60240;BME280;46102;39.012;-7.064;2023-04-21T06:01:49;97560.91;;;12.92;72.58
60240;BME280;46102;39.012;-7.064;2023-04-21T06:03:49;97560.38;;;13.02;72.31
60240;BME280;46102;39.012;-7.064;2023-04-21T06:05:54;97568.19;;;13.00;72.39
60240;BME280;46102;39.012;-7.064;2023-04-21T06:07:55;97564.28;;;13.01;72.80
60240;BME280;46102;39.012;-7.064;2023-04-21T06:09:55;97567.47;;;13.03;72.41
60240;BME280;46102;39.012;-7.064;2023-04-21T06:11:57;97570.44;;;13.10;72.07
60240;BME280;46102;39.012;-7.064;2023-04-21T06:13:58;97579.91;;;13.13;71.77
60240;BME280;46102;39.012;-7.064;2023-04-21T06:15:59;97573.94;;;13.27;71.74
60240;BME280;46102;39.012;-7.064;2023-04-21T06:18:00;97574.13;;;13.18;71.72
60240;BME280;46102;39.012;-7.064;2023-04-21T06:20:00;97573.84;;;13.23;71.60
60240;BME280;46102;39.012;-7.064;2023-04-21T06:22:01;97579.34;;;13.23;71.08
60240;BME280;46102;39.012;-7.064;2023-04-21T06:24:02;97569.94;;;13.24;70.68
60240;BME280;46102;39.012;-7.064;2023-04-21T06:26:04;97570.66;;;13.21;70.46
60240;BME280;46102;39.012;-7.064;2023-04-21T06:28:06;97577.41;;;13.24;69.98
60240;BME280;46102;39.012;-7.064;2023-04-21T06:30:07;97581.66;;;13.21;69.99
60240;BME280;46102;39.012;-7.064;2023-04-21T06:32:09;97587.47;;;13.16;70.38
60240;BME280;46102;39.012;-7.064;2023-04-21T06:34:10;97586.69;;;13.00;70.85
60240;BME280;46102;39.012;-7.064;2023-04-21T06:36:11;97582.31;;;12.99;71.17
60240;BME280;46102;39.012;-7.064;2023-04-21T06:38:11;97581.41;;;12.95;71.34
60240;BME280;46102;39.012;-7.064;2023-04-21T06:40:12;97588.38;;;13.04;71.39
60240;BME280;46102;39.012;-7.064;2023-04-21T06:42:15;97586.84;;;13.07;71.36
60240;BME280;46102;39.012;-7.064;2023-04-21T06:44:17;97587.63;;;13.07;70.86
60240;BME280;46102;39.012;-7.064;2023-04-21T06:46:17;97584.69;;;13.16;70.71
60240;BME280;46102;39.012;-7.064;2023-04-21T06:48:18;97581.84;;;13.12;70.58
60240;BME280;46102;39.012;-7.064;2023-04-21T06:50:19;97591.09;;;13.20;70.36
60240;BME280;46102;39.012;-7.064;2023-04-21T06:52:20;97581.94;;;13.16;70.53
60240;BME280;46102;39.012;-7.064;2023-04-21T06:54:20;97591.25;;;13.27;70.16
60240;BME280;46102;39.012;-7.064;2023-04-21T06:56:21;97591.88;;;13.21;69.87
60240;BME280;46102;39.012;-7.064;2023-04-21T06:58:22;97590.16;;;13.28;69.81
60240;BME280;46102;39.012;-7.064;2023-04-21T07:00:23;97596.59;;;13.36;69.70
60240;BME280;46102;39.012;-7.064;2023-04-21T07:02:24;97588.19;;;13.29;69.29
60240;BME280;46102;39.012;-7.064;2023-04-21T07:04:24;97594.59;;;13.33;69.60
60240;BME280;46102;39.012;-7.064;2023-04-21T07:06:29;97586.97;;;13.46;68.89
60240;BME280;46102;39.012;-7.064;2023-04-21T07:08:31;97592.72;;;13.57;69.02
60240;BME280;46102;39.012;-7.064;2023-04-21T07:10:32;97593.63;;;13.61;68.59
60240;BME280;46102;39.012;-7.064;2023-04-21T07:12:32;97596.44;;;13.64;68.31
60240;BME280;46102;39.012;-7.064;2023-04-21T07:14:33;97601.03;;;13.76;68.32
60240;BME280;46102;39.012;-7.064;2023-04-21T07:16:34;97596.47;;;13.84;67.90
60240;BME280;46102;39.012;-7.064;2023-04-21T07:18:35;97594.28;;;13.93;67.60
60240;BME280;46102;39.012;-7.064;2023-04-21T07:20:35;97593.88;;;14.10;67.06
60240;BME280;46102;39.012;-7.064;2023-04-21T07:22:36;97594.94;;;14.25;66.37
60240;BME280;46102;39.012;-7.064;2023-04-21T07:24:37;97598.56;;;14.29;66.34
60240;BME280;46102;39.012;-7.064;2023-04-21T07:26:38;97598.63;;;14.33;66.34
60240;BME280;46102;39.012;-7.064;2023-04-21T07:28:39;97592.59;;;14.27;66.28
60240;BME280;46102;39.012;-7.064;2023-04-21T07:30:40;97593.25;;;14.40;66.13
60240;BME280;46102;39.012;-7.064;2023-04-21T07:32:41;97597.78;;;14.52;65.83
60240;BME280;46102;39.012;-7.064;2023-04-21T07:34:42;97599.00;;;14.74;65.57
60240;BME280;46102;39.012;-7.064;2023-04-21T07:36:45;97593.00;;;14.91;64.93
60240;BME280;46102;39.012;-7.064;2023-04-21T07:38:46;97601.22;;;15.11;63.87
60240;BME280;46102;39.012;-7.064;2023-04-21T07:40:47;97604.38;;;15.13;63.93
60240;BME280;46102;39.012;-7.064;2023-04-21T07:42:47;97604.34;;;15.09;63.59
60240;BME280;46102;39.012;-7.064;2023-04-21T07:44:48;97596.66;;;15.22;63.00
60240;BME280;46102;39.012;-7.064;2023-04-21T07:46:52;97595.22;;;15.32;62.48
60240;BME280;46102;39.012;-7.064;2023-04-21T07:48:53;97605.34;;;15.47;62.05
60240;BME280;46102;39.012;-7.064;2023-04-21T07:50:54;97607.59;;;15.68;61.46
60240;BME280;46102;39.012;-7.064;2023-04-21T07:52:54;97603.91;;;15.87;60.79
60240;BME280;46102;39.012;-7.064;2023-04-21T07:54:55;97603.69;;;15.99;59.91
60240;BME280;46102;39.012;-7.064;2023-04-21T07:56:56;97597.09;;;16.08;59.63
60240;BME280;46102;39.012;-7.064;2023-04-21T07:58:57;97604.25;;;16.12;59.42
60240;BME280;46102;39.012;-7.064;2023-04-21T08:00:57;97598.25;;;16.07;59.64
60240;BME280;46102;39.012;-7.064;2023-04-21T08:02:58;97591.84;;;15.99;59.98
60240;BME280;46102;39.012;-7.064;2023-04-21T08:04:59;97591.94;;;16.10;59.63
60240;BME280;46102;39.012;-7.064;2023-04-21T08:07:00;97587.75;;;16.19;59.01
60240;BME280;46102;39.012;-7.064;2023-04-21T08:09:02;97590.22;;;16.28;58.62
60240;BME280;46102;39.012;-7.064;2023-04-21T08:11:04;97587.53;;;16.39;58.32
60240;BME280;46102;39.012;-7.064;2023-04-21T08:13:04;97594.28;;;16.38;58.16
60240;BME280;46102;39.012;-7.064;2023-04-21T08:15:06;97601.19;;;16.21;58.38
60240;BME280;46102;39.012;-7.064;2023-04-21T08:17:07;97608.78;;;16.28;58.12
60240;BME280;46102;39.012;-7.064;2023-04-21T08:19:08;97614.63;;;16.19;58.34
60240;BME280;46102;39.012;-7.064;2023-04-21T08:21:09;97600.78;;;16.19;57.82
60240;BME280;46102;39.012;-7.064;2023-04-21T08:23:10;97604.84;;;16.29;57.84
60240;BME280;46102;39.012;-7.064;2023-04-21T08:25:11;97605.13;;;16.20;57.54
60240;BME280;46102;39.012;-7.064;2023-04-21T08:27:12;97609.91;;;16.23;57.84
60240;BME280;46102;39.012;-7.064;2023-04-21T08:29:12;97604.63;;;16.44;57.10
60240;BME280;46102;39.012;-7.064;2023-04-21T08:31:13;97607.09;;;16.53;56.73
60240;BME280;46102;39.012;-7.064;2023-04-21T08:33:14;97611.97;;;16.67;56.15
60240;BME280;46102;39.012;-7.064;2023-04-21T08:35:15;97606.44;;;16.67;56.14
60240;BME280;46102;39.012;-7.064;2023-04-21T08:37:16;97610.34;;;16.62;56.20
60240;BME280;46102;39.012;-7.064;2023-04-21T08:39:17;97601.69;;;16.68;56.39
60240;BME280;46102;39.012;-7.064;2023-04-21T08:41:18;97606.22;;;16.83;56.12
60240;BME280;46102;39.012;-7.064;2023-04-21T08:43:20;97605.09;;;16.88;55.76
60240;BME280;46102;39.012;-7.064;2023-04-21T08:45:20;97609.94;;;17.01;55.49
60240;BME280;46102;39.012;-7.064;2023-04-21T08:47:23;97606.31;;;17.42;54.85
60240;BME280;46102;39.012;-7.064;2023-04-21T08:49:28;97601.88;;;17.89;53.68
60240;BME280;46102;39.012;-7.064;2023-04-21T08:51:29;97600.81;;;18.26;52.32
60240;BME280;46102;39.012;-7.064;2023-04-21T08:53:30;97591.38;;;18.48;51.37
60240;BME280;46102;39.012;-7.064;2023-04-21T08:55:31;97591.50;;;18.91;50.66
60240;BME280;46102;39.012;-7.064;2023-04-21T08:57:32;97596.66;;;19.25;49.62
60240;BME280;46102;39.012;-7.064;2023-04-21T08:59:33;97594.66;;;19.11;49.60
60240;BME280;46102;39.012;-7.064;2023-04-21T09:02:06;97588.72;;;18.99;50.05
60240;BME280;46102;39.012;-7.064;2023-04-21T09:04:17;97591.50;;;19.20;49.63
60240;BME280;46102;39.012;-7.064;2023-04-21T09:06:18;97584.75;;;19.10;49.44
60240;BME280;46102;39.012;-7.064;2023-04-21T09:08:18;97583.53;;;19.29;48.91
60240;BME280;46102;39.012;-7.064;2023-04-21T09:10:22;97598.22;;;19.55;47.87
60240;BME280;46102;39.012;-7.064;2023-04-21T09:12:25;97599.00;;;19.59;47.57
60240;BME280;46102;39.012;-7.064;2023-04-21T09:14:30;97600.22;;;19.51;47.87
60240;BME280;46102;39.012;-7.064;2023-04-21T09:16:32;97596.63;;;19.75;47.44
60240;BME280;46102;39.012;-7.064;2023-04-21T09:18:33;97599.78;;;19.88;47.16
60240;BME280;46102;39.012;-7.064;2023-04-21T09:20:36;97599.75;;;19.92;45.97
60240;BME280;46102;39.012;-7.064;2023-04-21T09:22:40;97599.78;;;19.74;46.72
60240;BME280;46102;39.012;-7.064;2023-04-21T09:24:45;97604.97;;;19.68;46.95
60240;BME280;46102;39.012;-7.064;2023-04-21T09:26:50;97612.91;;;19.63;47.34
60240;BME280;46102;39.012;-7.064;2023-04-21T09:28:52;97613.31;;;19.61;47.39
60240;BME280;46102;39.012;-7.064;2023-04-21T09:30:54;97614.88;;;19.59;47.13
60240;BME280;46102;39.012;-7.064;2023-04-21T09:32:57;97613.72;;;19.60;47.35
60240;BME280;46102;39.012;-7.064;2023-04-21T09:35:01;97620.47;;;19.84;46.90
60240;BME280;46102;39.012;-7.064;2023-04-21T09:37:02;97615.66;;;19.91;46.54
60240;BME280;46102;39.012;-7.064;2023-04-21T09:39:04;97623.59;;;20.00;46.53
60240;BME280;46102;39.012;-7.064;2023-04-21T09:41:05;97622.28;;;20.26;45.60
60240;BME280;46102;39.012;-7.064;2023-04-21T09:43:06;97623.41;;;20.47;45.23
60240;BME280;46102;39.012;-7.064;2023-04-21T09:45:08;97619.75;;;20.64;44.86
60240;BME280;46102;39.012;-7.064;2023-04-21T09:47:10;97614.63;;;20.52;44.74
60240;BME280;46102;39.012;-7.064;2023-04-21T09:49:13;97619.03;;;20.46;45.01
60240;BME280;46102;39.012;-7.064;2023-04-21T09:51:16;97610.09;;;20.83;44.62
60240;BME280;46102;39.012;-7.064;2023-04-21T09:53:20;97616.78;;;20.96;43.89
60240;BME280;46102;39.012;-7.064;2023-04-21T09:55:29;97611.53;;;21.06;43.84
60240;BME280;46102;39.012;-7.064;2023-04-21T09:57:31;97616.25;;;21.12;44.22
60240;BME280;46102;39.012;-7.064;2023-04-21T09:59:35;97611.47;;;21.13;43.35
60240;BME280;46102;39.012;-7.064;2023-04-21T10:01:36;97604.47;;;20.87;44.25
60240;BME280;46102;39.012;-7.064;2023-04-21T10:03:38;97600.84;;;20.97;44.37
60240;BME280;46102;39.012;-7.064;2023-04-21T10:05:42;97605.00;;;21.23;43.81
60240;BME280;46102;39.012;-7.064;2023-04-21T10:07:46;97601.69;;;21.39;44.04
60240;BME280;46102;39.012;-7.064;2023-04-21T10:09:52;97601.19;;;21.55;43.45
60240;BME280;46102;39.012;-7.064;2023-04-21T10:11:54;97602.31;;;21.12;44.05
60240;BME280;46102;39.012;-7.064;2023-04-21T10:13:55;97612.00;;;20.93;44.43
60240;BME280;46102;39.012;-7.064;2023-04-21T10:16:07;97602.09;;;20.89;44.33
60240;BME280;46102;39.012;-7.064;2023-04-21T10:18:21;97607.97;;;21.02;44.28
60240;BME280;46102;39.012;-7.064;2023-04-21T10:20:22;97609.19;;;21.53;43.27
60240;BME280;46102;39.012;-7.064;2023-04-21T10:22:32;97606.25;;;21.67;41.53
60240;BME280;46102;39.012;-7.064;2023-04-21T10:24:36;97608.44;;;21.87;40.15
60240;BME280;46102;39.012;-7.064;2023-04-21T10:26:38;97604.94;;;22.13;39.14
60240;BME280;46102;39.012;-7.064;2023-04-21T10:28:40;97602.47;;;22.19;38.64
60240;BME280;46102;39.012;-7.064;2023-04-21T10:30:41;97601.94;;;22.31;38.97
60240;BME280;46102;39.012;-7.064;2023-04-21T10:32:42;97602.19;;;21.72;39.84
60240;BME280;46102;39.012;-7.064;2023-04-21T10:34:44;97596.31;;;21.62;39.27
60240;BME280;46102;39.012;-7.064;2023-04-21T10:36:50;97604.16;;;21.75;38.34